createdAt,value
2022-12-11T00:00:03.537Z,18.75
2022-12-11T00:02:30.029Z,20.25
2022-12-11T00:04:56.477Z,20.55
2022-12-11T00:07:22.824Z,20.02
2022-12-11T00:09:49.452Z,19.48
2022-12-11T00:12:16.320Z,18.60
2022-12-11T00:14:42.643Z,18.90
2022-12-11T00:17:09.390Z,19.67
2022-12-11T00:19:35.970Z,19.15
2022-12-11T00:22:02.354Z,19.08
2022-12-11T00:24:29.015Z,20.88
2022-12-11T00:26:58.454Z,20.65
2022-12-11T00:29:24.854Z,19.98
2022-12-11T00:31:51.481Z,18.15
2022-12-11T00:34:17.950Z,20.33
2022-12-11T00:36:44.399Z,19.33
2022-12-11T00:39:10.950Z,18.55
2022-12-11T00:41:37.389Z,19.55
2022-12-11T00:44:03.879Z,19.58
2022-12-11T00:46:30.348Z,20.50
2022-12-11T00:48:59.550Z,18.65
2022-12-11T00:51:26.047Z,19.02
2022-12-11T00:53:52.726Z,20.30
2022-12-11T00:56:24.614Z,18.58
2022-12-11T00:58:51.958Z,19.80
2022-12-11T01:01:22.199Z,20.30
2022-12-11T01:03:49.073Z,20.73
2022-12-11T01:06:21.230Z,19.10
2022-12-11T01:09:08.066Z,20.60
2022-12-11T01:11:34.466Z,19.35
2022-12-11T01:14:00.972Z,20.70
2022-12-11T01:16:27.493Z,21.92
2022-12-11T01:18:53.878Z,22.35
2022-12-11T01:21:20.656Z,22.13
2022-12-11T01:23:50.015Z,22.10
2022-12-11T01:26:16.791Z,22.90
2022-12-11T01:28:48.612Z,23.08
2022-12-11T01:31:16.713Z,23.38
2022-12-11T01:33:43.150Z,23.55
2022-12-11T01:36:10.415Z,22.42
2022-12-11T01:38:36.988Z,22.17
2022-12-11T01:41:03.866Z,22.67
2022-12-11T01:43:30.349Z,23.95
2022-12-11T01:45:57.301Z,23.08
2022-12-11T01:48:26.024Z,23.30
2022-12-11T01:50:55.556Z,21.70
2022-12-11T01:53:31.708Z,22.90
2022-12-11T01:55:58.729Z,21.38
2022-12-11T01:58:29.513Z,22.48
2022-12-11T02:00:56.618Z,23.52
2022-12-11T02:03:23.204Z,22.30
2022-12-11T02:05:49.959Z,22.35
2022-12-11T02:08:16.639Z,23.02
2022-12-11T02:10:54.415Z,22.30
2022-12-11T02:13:41.112Z,22.83
2022-12-11T02:16:23.536Z,21.50
2022-12-11T02:19:03.507Z,22.05
2022-12-11T02:21:37.458Z,20.55
2022-12-11T02:24:23.969Z,21.27
2022-12-11T02:27:03.666Z,22.50
2022-12-11T02:29:37.146Z,22.08
2022-12-11T02:32:11.591Z,21.63
2022-12-11T02:35:01.649Z,22.33
2022-12-11T02:37:30.197Z,21.65
2022-12-11T02:39:57.131Z,20.88
2022-12-11T02:42:28.855Z,21.38
2022-12-11T02:44:57.264Z,22.20
2022-12-11T02:47:25.276Z,21.70
2022-12-11T02:49:52.294Z,22.35
2022-12-11T02:52:21.283Z,22.67
2022-12-11T02:54:49.396Z,22.75
2022-12-11T02:57:36.255Z,22.35
2022-12-11T03:00:02.805Z,23.60
2022-12-11T03:02:29.267Z,22.58
2022-12-11T03:04:57.266Z,22.13
2022-12-11T03:07:26.488Z,21.63
2022-12-11T03:09:53.055Z,22.63
2022-12-11T03:12:24.464Z,24.30
2022-12-11T03:14:51.008Z,23.83
2022-12-11T03:17:23.381Z,22.77
2022-12-11T03:20:20.441Z,22.70
2022-12-11T03:23:00.238Z,22.95
2022-12-11T03:25:33.324Z,24.05
2022-12-11T03:28:10.914Z,23.38
2022-12-11T03:30:37.786Z,23.73
2022-12-11T03:33:14.125Z,25.30
2022-12-11T03:35:43.089Z,24.17
2022-12-11T03:38:14.043Z,24.52
2022-12-11T03:40:42.316Z,25.48
2022-12-11T03:43:09.698Z,26.98
2022-12-11T03:45:39.078Z,26.52
2022-12-11T03:48:07.270Z,26.40
2022-12-11T03:50:34.519Z,25.52
2022-12-11T03:53:01.565Z,27.42
2022-12-11T03:55:29.162Z,25.95
2022-12-11T03:57:55.513Z,25.90
2022-12-11T04:00:23.184Z,27.67
2022-12-11T04:03:13.630Z,26.33
2022-12-11T04:05:41.974Z,25.85
2022-12-11T04:08:08.453Z,26.88
2022-12-11T04:10:34.878Z,25.35
2022-12-11T04:13:01.252Z,27.13
2022-12-11T04:15:27.651Z,26.52
2022-12-11T04:18:14.280Z,27.08
2022-12-11T04:20:59.160Z,26.17
2022-12-11T04:23:44.443Z,25.67
2022-12-11T04:26:13.383Z,26.23
2022-12-11T04:28:40.029Z,26.17
2022-12-11T04:31:06.910Z,25.75
2022-12-11T04:33:33.296Z,25.08
2022-12-11T04:36:00.293Z,26.40
2022-12-11T04:38:26.752Z,26.80
2022-12-11T04:41:07.575Z,26.20
2022-12-11T04:43:33.985Z,26.73
2022-12-11T04:46:09.232Z,27.40
2022-12-11T04:48:36.145Z,26.13
2022-12-11T04:51:02.719Z,26.42
2022-12-11T04:53:29.352Z,28.00
2022-12-11T04:55:55.857Z,27.10
2022-12-11T04:58:22.833Z,25.73
2022-12-11T05:00:49.664Z,28.27
2022-12-11T05:03:16.070Z,26.58
2022-12-11T05:05:51.243Z,26.23
2022-12-11T05:08:18.908Z,26.35
2022-12-11T05:10:49.942Z,26.50
2022-12-11T05:13:16.573Z,25.50
2022-12-11T05:15:42.947Z,26.13
2022-12-11T05:18:09.458Z,26.30
2022-12-11T05:20:35.802Z,26.45
2022-12-11T05:23:02.166Z,24.63
2022-12-11T05:25:28.578Z,26.65
2022-12-11T05:27:54.943Z,25.88
2022-12-11T05:30:21.277Z,26.00
2022-12-11T05:32:47.605Z,27.48
2022-12-11T05:35:14.020Z,26.95
2022-12-11T05:37:40.913Z,25.58
2022-12-11T05:40:07.930Z,25.92
2022-12-11T05:42:34.567Z,27.23
2022-12-11T05:45:00.931Z,24.95
2022-12-11T05:47:27.256Z,26.10
2022-12-11T05:49:53.697Z,26.02
2022-12-11T05:52:20.089Z,26.35
2022-12-11T05:54:49.290Z,28.15
2022-12-11T05:57:15.877Z,27.25
2022-12-11T05:59:42.286Z,27.85
2022-12-11T06:02:08.743Z,28.15
2022-12-11T06:04:35.212Z,28.45
2022-12-11T06:07:01.582Z,29.40
2022-12-11T06:09:27.977Z,28.48
2022-12-11T06:11:54.301Z,27.70
2022-12-11T06:14:20.664Z,28.48
2022-12-11T06:16:47.023Z,27.52
2022-12-11T06:19:15.219Z,27.38
2022-12-11T06:21:42.002Z,26.77
2022-12-11T06:24:10.680Z,27.40
2022-12-11T06:26:37.026Z,27.67
2022-12-11T06:29:06.343Z,25.88
2022-12-11T06:31:35.546Z,27.73
2022-12-11T06:34:01.924Z,29.10
2022-12-11T06:36:28.411Z,27.67
2022-12-11T06:38:55.280Z,28.05
2022-12-11T06:41:21.606Z,27.05
2022-12-11T06:43:48.053Z,27.38
2022-12-11T06:46:19.130Z,27.95
2022-12-11T06:48:45.976Z,26.30
2022-12-11T06:51:14.788Z,26.45
2022-12-11T06:53:41.603Z,27.88
2022-12-11T06:56:10.820Z,26.77
2022-12-11T06:58:37.474Z,28.40
2022-12-11T07:01:05.375Z,27.33
2022-12-11T07:03:31.756Z,28.52
2022-12-11T07:06:04.200Z,31.55
2022-12-11T07:08:31.822Z,32.33
2022-12-11T07:11:05.996Z,34.35
2022-12-11T07:13:33.634Z,34.28
2022-12-11T07:16:04.441Z,33.00
2022-12-11T07:18:32.062Z,31.30
2022-12-11T07:21:00.270Z,33.90
2022-12-11T07:23:28.280Z,32.33
2022-12-11T07:25:55.748Z,34.30
2022-12-11T07:28:22.317Z,34.08
2022-12-11T07:30:48.692Z,33.78
2022-12-11T07:33:15.685Z,36.55
2022-12-11T07:35:42.218Z,36.95
2022-12-11T07:38:08.658Z,34.78
2022-12-11T07:40:35.070Z,34.22
2022-12-11T07:43:01.509Z,36.17
2022-12-11T07:45:28.294Z,36.55
2022-12-11T07:47:54.844Z,35.13
2022-12-11T07:50:21.305Z,35.65
2022-12-11T07:52:48.044Z,35.92
2022-12-11T07:55:14.655Z,33.15
2022-12-11T07:57:40.970Z,34.50
2022-12-11T08:00:07.744Z,37.15
2022-12-11T08:02:37.397Z,36.65
2022-12-11T08:05:04.412Z,37.05
2022-12-11T08:07:30.711Z,36.90
2022-12-11T08:09:57.062Z,33.42
2022-12-11T08:12:23.408Z,43.83
2022-12-11T08:14:49.822Z,51.72
2022-12-11T08:17:16.211Z,42.05
2022-12-11T08:19:42.655Z,38.50
2022-12-11T08:22:09.238Z,33.63
2022-12-11T08:24:35.838Z,32.42
2022-12-11T08:27:02.252Z,34.63
2022-12-11T08:29:28.741Z,33.42
2022-12-11T08:31:55.340Z,33.95
2022-12-11T08:34:21.875Z,33.90
2022-12-11T08:36:48.196Z,31.92
2022-12-11T08:39:14.838Z,31.75
2022-12-11T08:41:41.248Z,30.30
2022-12-11T08:44:16.048Z,31.27
2022-12-11T08:46:43.104Z,32.45
2022-12-11T08:49:10.240Z,30.92
2022-12-11T08:51:36.561Z,32.90
2022-12-11T08:54:03.030Z,31.75
2022-12-11T08:56:29.929Z,31.23
2022-12-11T08:58:56.533Z,32.72
2022-12-11T09:01:25.423Z,32.47
2022-12-11T09:03:53.043Z,31.80
2022-12-11T09:06:21.719Z,32.90
2022-12-11T09:08:52.504Z,32.08
2022-12-11T09:11:22.305Z,31.50
2022-12-11T09:13:48.684Z,33.25
2022-12-11T09:16:16.973Z,32.72
2022-12-11T09:18:45.973Z,33.60
2022-12-11T09:21:14.471Z,34.03
2022-12-11T09:23:40.857Z,48.17
2022-12-11T09:26:11.095Z,52.00
2022-12-11T09:28:41.372Z,68.80
2022-12-11T09:31:23.395Z,51.50
2022-12-11T09:33:51.483Z,54.78
2022-12-11T09:36:18.473Z,46.70
2022-12-11T09:38:45.159Z,44.25
2022-12-11T09:41:20.397Z,34.35
2022-12-11T09:43:58.751Z,31.75
2022-12-11T09:46:28.554Z,34.65
2022-12-11T09:48:58.666Z,34.78
2022-12-11T09:51:42.054Z,34.35
2022-12-11T09:54:11.272Z,31.13
2022-12-11T09:57:01.158Z,30.60
2022-12-11T09:59:33.517Z,30.05
2022-12-11T10:02:15.308Z,30.85
2022-12-11T10:05:00.094Z,30.75
2022-12-11T10:08:00.493Z,31.23
2022-12-11T10:10:29.668Z,29.50
2022-12-11T10:13:26.050Z,30.52
2022-12-11T10:15:57.824Z,29.70
2022-12-11T10:18:26.276Z,30.90
2022-12-11T10:20:53.754Z,29.92
2022-12-11T10:23:23.332Z,28.38
2022-12-11T10:25:59.901Z,29.52
2022-12-11T10:28:27.367Z,29.27
2022-12-11T10:31:04.627Z,31.50
2022-12-11T10:33:41.717Z,32.20
2022-12-11T10:36:09.075Z,30.63
2022-12-11T10:38:43.787Z,32.38
2022-12-11T10:41:14.409Z,32.75
2022-12-11T10:43:43.398Z,31.48
2022-12-11T10:46:22.144Z,31.40
2022-12-11T10:48:53.682Z,30.65
2022-12-11T10:51:26.121Z,30.55
2022-12-11T10:53:55.990Z,30.67
2022-12-11T10:56:29.345Z,29.65
2022-12-11T10:58:57.637Z,28.67
2022-12-11T11:01:26.158Z,28.48
2022-12-11T11:04:14.045Z,28.08
2022-12-11T11:06:40.388Z,29.48
2022-12-11T11:09:31.227Z,28.10
2022-12-11T11:11:57.720Z,29.80
2022-12-11T11:14:24.218Z,31.38
2022-12-11T11:16:52.780Z,31.60
2022-12-11T11:19:27.227Z,32.55
2022-12-11T11:21:59.437Z,34.08
2022-12-11T11:24:44.960Z,34.53
2022-12-11T11:27:13.972Z,34.45
2022-12-11T11:29:41.395Z,34.95
2022-12-11T11:32:32.614Z,34.55
2022-12-11T11:35:14.207Z,36.08
2022-12-11T11:37:44.223Z,36.00
2022-12-11T11:40:25.787Z,36.92
2022-12-11T11:43:05.479Z,34.33
2022-12-11T11:45:44.517Z,36.30
2022-12-11T11:48:26.104Z,36.08
2022-12-11T11:50:53.734Z,35.10
2022-12-11T11:53:32.836Z,36.10
2022-12-11T11:56:07.364Z,37.47
2022-12-11T11:58:46.460Z,37.20
2022-12-11T12:01:20.164Z,36.38
2022-12-11T12:03:47.965Z,35.83
2022-12-11T12:06:27.905Z,37.63
2022-12-11T12:09:12.993Z,39.03
2022-12-11T12:12:04.423Z,38.03
2022-12-11T12:14:54.487Z,38.67
2022-12-11T12:17:35.985Z,37.38
2022-12-11T12:20:38.900Z,37.30
2022-12-11T12:23:37.239Z,33.78
2022-12-11T12:26:06.781Z,35.50
2022-12-11T12:28:59.305Z,35.25
2022-12-11T12:31:31.953Z,32.42
2022-12-11T12:34:04.323Z,31.05
2022-12-11T12:36:43.199Z,31.10
2022-12-11T12:39:15.516Z,28.83
2022-12-11T12:42:07.085Z,29.40
2022-12-11T12:44:42.877Z,30.85
2022-12-11T12:47:12.671Z,28.55
2022-12-11T12:49:42.855Z,29.95
2022-12-11T12:52:14.914Z,29.85
2022-12-11T12:54:42.694Z,29.17
2022-12-11T12:57:09.442Z,29.42
2022-12-11T12:59:35.800Z,28.48
2022-12-11T13:02:03.127Z,27.52
2022-12-11T13:04:57.891Z,27.02
2022-12-11T13:07:30.413Z,25.40
2022-12-11T13:10:00.146Z,23.90
2022-12-11T13:12:41.965Z,25.65
2022-12-11T13:15:33.504Z,25.98
2022-12-11T13:18:01.142Z,27.17
2022-12-11T13:20:31.588Z,25.00
2022-12-11T13:23:06.701Z,23.77
2022-12-11T13:25:46.272Z,22.35
2022-12-11T13:28:33.381Z,21.30
2022-12-11T13:31:14.751Z,20.52
2022-12-11T13:33:48.025Z,19.77
2022-12-11T13:36:24.552Z,22.30
2022-12-11T13:39:03.868Z,20.88
2022-12-11T13:41:33.111Z,20.23
2022-12-11T13:43:59.945Z,20.55
2022-12-11T13:46:31.462Z,20.23
2022-12-11T13:49:01.303Z,19.98
2022-12-11T13:51:30.910Z,20.50
2022-12-11T13:54:23.447Z,19.10
2022-12-11T13:56:57.176Z,21.13
2022-12-11T13:59:35.456Z,20.95
2022-12-11T14:02:19.755Z,22.15
2022-12-11T14:04:47.940Z,20.58
2022-12-11T14:07:17.400Z,21.15
2022-12-11T14:09:45.366Z,23.08
2022-12-11T14:12:19.976Z,22.35
2022-12-11T14:14:50.189Z,21.75
2022-12-11T14:17:22.473Z,21.85
2022-12-11T14:19:48.911Z,21.33
2022-12-11T14:22:20.334Z,21.25
2022-12-11T14:24:55.852Z,22.17
2022-12-11T14:27:22.878Z,20.58
2022-12-11T14:29:50.030Z,21.10
2022-12-11T14:32:24.379Z,21.17
2022-12-11T14:34:51.426Z,20.38
2022-12-11T14:37:19.436Z,36.05
2022-12-11T14:40:00.152Z,29.23
2022-12-11T14:42:30.535Z,23.95
2022-12-11T14:45:07.654Z,22.58
2022-12-11T14:47:39.696Z,20.27
2022-12-11T14:50:21.435Z,19.23
2022-12-11T14:52:51.010Z,20.45
2022-12-11T14:55:24.363Z,19.45
2022-12-11T14:57:55.254Z,19.17
2022-12-11T15:00:40.309Z,19.55
2022-12-11T15:03:21.943Z,20.23
2022-12-11T15:05:50.320Z,18.52
2022-12-11T15:08:26.656Z,20.83
2022-12-11T15:11:11.695Z,20.25
2022-12-11T15:13:48.124Z,19.45
2022-12-11T15:16:14.833Z,20.67
2022-12-11T15:18:42.426Z,20.27
2022-12-11T15:21:11.434Z,16.60
2022-12-11T15:23:53.569Z,18.17
2022-12-11T15:26:21.033Z,21.38
2022-12-11T15:28:47.485Z,23.50
2022-12-11T15:31:29.105Z,23.10
2022-12-11T15:33:55.429Z,21.92
2022-12-11T15:36:34.581Z,22.48
2022-12-11T15:39:01.548Z,21.58
2022-12-11T15:41:28.471Z,20.00
2022-12-11T15:43:58.842Z,20.88
2022-12-11T15:46:26.013Z,21.40
2022-12-11T15:48:52.376Z,22.70
2022-12-11T15:51:18.772Z,21.98
2022-12-11T15:53:45.152Z,20.33
2022-12-11T15:56:17.871Z,21.17
2022-12-11T15:58:44.992Z,22.25
2022-12-11T16:01:11.552Z,21.23
2022-12-11T16:03:38.116Z,21.17
2022-12-11T16:06:04.476Z,20.38
2022-12-11T16:08:30.903Z,19.25
2022-12-11T16:10:57.440Z,20.13
2022-12-11T16:13:23.995Z,21.48
2022-12-11T16:15:51.744Z,20.50
2022-12-11T16:18:21.517Z,21.00
2022-12-11T16:20:47.939Z,19.20
2022-12-11T16:23:16.207Z,19.98
2022-12-11T16:25:43.399Z,18.95
2022-12-11T16:28:11.275Z,20.40
2022-12-11T16:30:38.276Z,20.10
2022-12-11T16:33:11.791Z,18.90
2022-12-11T16:35:39.233Z,18.95
2022-12-11T16:38:05.656Z,18.83
2022-12-11T16:40:32.111Z,17.27
2022-12-11T16:42:58.610Z,19.25
2022-12-11T16:45:26.588Z,20.08
2022-12-11T16:47:53.363Z,19.45
2022-12-11T16:50:20.062Z,20.30
2022-12-11T16:52:47.137Z,19.77
2022-12-11T16:55:14.712Z,20.50
2022-12-11T16:57:41.710Z,20.40
2022-12-11T17:00:10.114Z,20.33
2022-12-11T17:02:36.640Z,20.75
2022-12-11T17:05:03.410Z,20.33
2022-12-11T17:07:31.623Z,21.92
2022-12-11T17:09:58.072Z,21.75
2022-12-11T17:12:27.663Z,20.70
2022-12-11T17:14:54.826Z,21.88
2022-12-11T17:17:21.213Z,23.45
2022-12-11T17:19:47.542Z,22.00
2022-12-11T17:22:13.849Z,21.65
2022-12-11T17:24:40.170Z,20.52
2022-12-11T17:27:06.522Z,22.00
2022-12-11T17:29:32.867Z,22.98
2022-12-11T17:31:59.436Z,21.15
2022-12-11T17:34:25.764Z,23.35
2022-12-11T17:36:52.305Z,25.33
2022-12-11T17:39:18.726Z,25.83
2022-12-11T17:41:45.100Z,25.83
2022-12-11T17:44:11.481Z,29.48
2022-12-11T17:46:37.978Z,29.15
2022-12-11T17:49:05.179Z,26.92
2022-12-11T17:51:31.547Z,26.23
2022-12-11T17:53:58.406Z,25.73
2022-12-11T17:56:25.882Z,27.92
2022-12-11T17:58:52.416Z,28.75
2022-12-11T18:01:19.401Z,26.58
2022-12-11T18:03:46.782Z,30.67
2022-12-11T18:06:15.331Z,30.75
2022-12-11T18:08:44.276Z,30.73
2022-12-11T18:11:19.733Z,32.95
2022-12-11T18:13:46.479Z,30.75
2022-12-11T18:16:34.493Z,32.72
2022-12-11T18:19:00.884Z,31.63
2022-12-11T18:21:30.649Z,32.15
2022-12-11T18:23:57.217Z,32.53
2022-12-11T18:26:23.625Z,33.95
2022-12-11T18:28:51.104Z,32.13
2022-12-11T18:31:18.589Z,32.35
2022-12-11T18:33:45.596Z,30.00
2022-12-11T18:36:14.564Z,31.13
2022-12-11T18:38:42.292Z,32.22
2022-12-11T18:41:10.555Z,33.63
2022-12-11T18:43:37.696Z,33.28
2022-12-11T18:46:14.254Z,31.77
2022-12-11T18:48:44.346Z,32.83
2022-12-11T18:51:13.624Z,33.13
2022-12-11T18:53:41.221Z,32.60
2022-12-11T18:56:17.494Z,31.67
2022-12-11T18:58:44.737Z,33.10
2022-12-11T19:01:29.573Z,33.97
2022-12-11T19:04:02.679Z,30.75
2022-12-11T19:06:33.087Z,30.85
2022-12-11T19:09:00.133Z,30.38
2022-12-11T19:11:28.309Z,30.40
2022-12-11T19:13:56.584Z,32.53
2022-12-11T19:16:33.645Z,31.27
2022-12-11T19:19:04.008Z,32.42
2022-12-11T19:21:30.603Z,33.17
2022-12-11T19:23:57.396Z,32.53
2022-12-11T19:26:24.132Z,32.72
2022-12-11T19:28:51.410Z,33.15
2022-12-11T19:31:20.574Z,34.22
2022-12-11T19:33:47.309Z,34.08
2022-12-11T19:36:16.648Z,34.47
2022-12-11T19:38:44.016Z,36.05
2022-12-11T19:41:15.374Z,33.72
2022-12-11T19:43:42.028Z,34.20
2022-12-11T19:46:09.258Z,35.90
2022-12-11T19:48:41.196Z,38.45
2022-12-11T19:51:10.167Z,34.42
2022-12-11T19:53:36.753Z,35.63
2022-12-11T19:56:03.902Z,32.60
2022-12-11T19:58:30.411Z,32.63
2022-12-11T20:00:56.799Z,35.78
2022-12-11T20:03:23.278Z,33.22
2022-12-11T20:05:49.635Z,34.88
2022-12-11T20:11:04.787Z,31.48
2022-12-11T20:13:32.150Z,34.33
2022-12-11T20:15:59.276Z,32.75
2022-12-11T20:18:26.249Z,34.67
2022-12-11T20:20:58.305Z,32.85
2022-12-11T20:23:25.825Z,32.13
2022-12-11T20:25:58.714Z,31.85
2022-12-11T20:28:26.226Z,31.35
2022-12-11T20:30:52.685Z,31.15
2022-12-11T20:33:19.203Z,31.88
2022-12-11T20:35:46.116Z,31.55
2022-12-11T20:38:12.683Z,30.90
2022-12-11T20:40:39.418Z,35.05
2022-12-11T20:43:05.872Z,29.17
2022-12-11T20:45:32.328Z,29.73
2022-12-11T20:47:58.795Z,29.25
2022-12-11T20:50:25.135Z,33.28
2022-12-11T20:52:51.472Z,32.08
2022-12-11T20:55:17.872Z,30.45
2022-12-11T20:57:45.355Z,32.42
2022-12-11T21:00:12.481Z,30.80
2022-12-11T21:02:40.790Z,32.00
2022-12-11T21:05:07.390Z,35.55
2022-12-11T21:07:34.014Z,34.95
2022-12-11T21:10:01.122Z,33.55
2022-12-11T21:12:31.532Z,33.10
2022-12-11T21:14:58.927Z,33.83
2022-12-11T21:17:25.801Z,33.00
2022-12-11T21:19:53.030Z,34.35
2022-12-11T21:22:19.528Z,32.10
2022-12-11T21:24:46.194Z,31.77
2022-12-11T21:27:13.917Z,32.70
2022-12-11T21:29:40.436Z,32.30
2022-12-11T21:32:07.741Z,31.13
2022-12-11T21:34:35.064Z,31.73
2022-12-11T21:37:01.827Z,32.60
2022-12-11T21:39:28.967Z,35.47
2022-12-11T21:41:55.857Z,36.08
2022-12-11T21:47:10.477Z,36.42
2022-12-11T21:49:38.951Z,35.53
2022-12-11T21:52:05.752Z,35.53
2022-12-11T21:54:32.537Z,33.97
2022-12-11T21:56:59.093Z,34.00
2022-12-11T21:59:25.906Z,36.42
2022-12-11T22:01:52.733Z,37.50
2022-12-11T22:04:19.243Z,33.10
2022-12-11T22:06:47.483Z,34.25
2022-12-11T22:09:15.812Z,36.53
2022-12-11T22:11:43.286Z,31.67
2022-12-11T22:14:15.428Z,33.20
2022-12-11T22:16:42.628Z,33.60
2022-12-11T22:19:09.529Z,32.03
2022-12-11T22:21:36.142Z,32.67
2022-12-11T22:24:02.527Z,33.67
2022-12-11T22:26:29.368Z,33.67
2022-12-11T22:28:56.884Z,32.15
2022-12-11T22:31:24.573Z,33.00
2022-12-11T22:33:53.978Z,33.10
2022-12-11T22:36:21.952Z,34.17
2022-12-11T22:38:48.314Z,32.15
2022-12-11T22:41:27.352Z,33.38
2022-12-11T22:43:54.514Z,31.25
2022-12-11T22:46:23.242Z,32.05
2022-12-11T22:48:49.861Z,32.33
2022-12-11T22:51:16.408Z,31.20
2022-12-11T22:53:42.905Z,32.78
2022-12-11T22:56:11.281Z,32.38
2022-12-11T22:58:38.895Z,30.33
2022-12-11T23:01:18.057Z,30.38
2022-12-11T23:03:45.571Z,31.42
2022-12-11T23:06:14.225Z,30.60
2022-12-11T23:08:41.281Z,29.45
2022-12-11T23:11:24.372Z,29.65
2022-12-11T23:13:50.980Z,30.58
2022-12-11T23:16:17.543Z,30.65
2022-12-11T23:18:44.002Z,30.67
2022-12-11T23:21:11.274Z,29.35
2022-12-11T23:23:37.815Z,29.48
2022-12-11T23:26:05.602Z,29.52
2022-12-11T23:28:32.044Z,28.25
2022-12-11T23:30:58.495Z,29.13
2022-12-11T23:33:24.934Z,28.25
2022-12-11T23:35:51.296Z,29.48
2022-12-11T23:38:17.620Z,29.52
2022-12-11T23:40:44.376Z,29.90
2022-12-11T23:43:12.952Z,30.35
2022-12-11T23:45:39.581Z,29.98
2022-12-11T23:48:06.024Z,31.52
2022-12-11T23:50:32.872Z,29.42
2022-12-11T23:52:59.203Z,28.85
2022-12-11T23:55:25.833Z,28.60
2022-12-11T23:57:54.984Z,28.35
